Terminal Aerodrome Forecast
Issued by NWS Twin Cities, MN

Home | Current Version | Previous Version | Text Only | Print | Product List | Glossary Off
Versions: 1 2 3 4 5 6 7 8 9 10 11 12 13 14 15 16 17 18 19 20 21 22 23 24 25 26 27 28 29 30 31

000
FTUS43 KMPX 031452 AAA
TAFMSP
TAF AMD
KMSP 031452Z 0315/0418 18009KT P6SM SCT050 BKN090
     FM031900 24008KT P6SM SCT050 BKN080
     FM032000 29009KT P6SM VCTS BKN050CB
     FM032300 35012G20KT P6SM BKN050
     FM040200 35010KT P6SM SCT050
     FM040700 35008KT P6SM SKC=

USA.gov is the U.S. government's official web portal to all federal, state and local government web resources and services.